This is the latest recevied weather packets stored in our database for station/object KB2KRJ. If no packets are shown the sender has not sent any weather packets the latest 10 day(s).
| Time | Temp. | Humidity | Pressure | Rain* | Wind** | Luminosity | Snow |
|---|---|---|---|---|---|---|---|
| 1777573859 | 12.78° C | 67% | 1007.1 hPa | 0 mm | - | - | - |
| 1777571167 | 12.78° C | 65% | 1006.9 hPa | 0.25 mm | - | - | - |
| 1777561235 | 10.56° C | 14% | 1007.6 hPa | 0.25 mm | - | - | - |
| 1777557628 | 10° C | 16% | 1007.3 hPa | 0.25 mm | - | - | - |
| 1777528827 | 9.44° C | 26% | 1007.5 hPa | 0.76 mm | - | - | - |
| 1777526122 | 9.44° C | 28% | 1007.6 hPa | 0.76 mm | - | - | - |
| 1777520708 | 9.44° C | 36% | 1008.6 hPa | 0.76 mm | - | - | - |
| 1777517109 | 11.11° C | 42% | 1008.8 hPa | 0.51 mm | - | - | - |
| 1777516202 | 11.11° C | 46% | 1008.5 hPa | 1.02 mm | - | - | - |
| 1777514459 | 11.67° C | 56% | 1008.8 hPa | 0.76 mm | - | - | - |
| 1777510856 | 14.44° C | 65% | 1008.9 hPa | 0 mm | - | - | - |
| 1777509955 | 14.44° C | 65% | 1008.8 hPa | 0 mm | - | - | - |
| 1777507254 | 15° C | 64% | 1008.4 hPa | 0 mm | - | - | - |
| 1777502765 | 16.67° C | 59% | 1008.7 hPa | 0 mm | - | - | - |
| 1777500947 | 17.22° C | 57% | 1008.8 hPa | 0 mm | - | - | - |
| 1777500045 | 17.22° C | 58% | 1009 hPa | 0 mm | - | - | - |
| 1777498243 | 17.22° C | 58% | 1009.2 hPa | 0 mm | - | - | - |
| 1777497341 | 17.22° C | 58% | 1009.1 hPa | 0 mm | - | - | - |
| 1777492836 | 16.67° C | 59% | 1009.9 hPa | 0 mm | - | - | - |
| 1777483821 | 18.33° C | 59% | 1011.6 hPa | 0 mm | - | - | - |
| 1777480220 | 17.78° C | 59% | 1012.6 hPa | 0 mm | - | - | - |
| 1777479317 | 17.22° C | 60% | 1012.9 hPa | 0 mm | - | - | - |
| 1777476608 | 17.22° C | 57% | 1013.2 hPa | 0 mm | - | - | - |
| 1777473901 | 16.67° C | 60% | 1013.4 hPa | 0 mm | - | - | - |
| 1777473058 | 16.11° C | 59% | 1013.6 hPa | 0 mm | - | - | - |
* Rain latest hour (hover to see other rain measurements)
** Current wind speed in m/s (hover to see current wind gust speed)